METAR Data
IDs: Format: Raw Decoded Include TAF

Data at: 2156 UTC 02 Aug 2021

KEBS 022135Z AUTO 00000KT 10SM FEW065 BKN090 26/12 A3012 RMK AO2